sensor_id;sensor_type;location;lat;lon;timestamp;P1;durP1;ratioP1;P2;durP2;ratioP2
23614;SDS011;11985;49.404;7.734;2023-01-30T00:00:59;39.87;;;17.73;;
23614;SDS011;11985;49.404;7.734;2023-01-30T00:06:02;34.83;;;14.73;;
23614;SDS011;11985;49.404;7.734;2023-01-30T00:11:07;44.25;;;18.40;;
23614;SDS011;11985;49.404;7.734;2023-01-30T00:16:10;50.40;;;20.75;;
23614;SDS011;11985;49.404;7.734;2023-01-30T00:21:12;44.25;;;19.52;;
23614;SDS011;11985;49.404;7.734;2023-01-30T00:26:16;51.83;;;20.20;;
23614;SDS011;11985;49.404;7.734;2023-01-30T00:31:18;45.30;;;18.67;;
23614;SDS011;11985;49.404;7.734;2023-01-30T00:36:19;45.67;;;18.02;;
23614;SDS011;11985;49.404;7.734;2023-01-30T00:41:22;46.60;;;20.60;;
23614;SDS011;11985;49.404;7.734;2023-01-30T00:46:44;56.17;;;20.50;;
23614;SDS011;11985;49.404;7.734;2023-01-30T00:52:03;51.65;;;19.60;;
23614;SDS011;11985;49.404;7.734;2023-01-30T00:57:07;53.33;;;20.90;;
23614;SDS011;11985;49.404;7.734;2023-01-30T01:02:09;55.35;;;20.02;;
23614;SDS011;11985;49.404;7.734;2023-01-30T01:07:10;54.53;;;20.70;;
23614;SDS011;11985;49.404;7.734;2023-01-30T01:12:15;53.67;;;20.92;;
23614;SDS011;11985;49.404;7.734;2023-01-30T01:17:16;56.88;;;20.38;;
23614;SDS011;11985;49.404;7.734;2023-01-30T01:22:18;49.60;;;20.48;;
23614;SDS011;11985;49.404;7.734;2023-01-30T01:27:21;50.65;;;19.83;;
23614;SDS011;11985;49.404;7.734;2023-01-30T01:32:22;49.88;;;19.83;;
23614;SDS011;11985;49.404;7.734;2023-01-30T01:37:24;44.78;;;19.65;;
23614;SDS011;11985;49.404;7.734;2023-01-30T01:42:28;50.65;;;19.02;;
23614;SDS011;11985;49.404;7.734;2023-01-30T01:47:33;51.55;;;19.67;;
23614;SDS011;11985;49.404;7.734;2023-01-30T01:52:36;53.22;;;19.17;;
23614;SDS011;11985;49.404;7.734;2023-01-30T01:57:40;48.80;;;19.73;;
23614;SDS011;11985;49.404;7.734;2023-01-30T02:02:46;44.22;;;17.67;;
23614;SDS011;11985;49.404;7.734;2023-01-30T02:07:52;51.92;;;21.25;;
23614;SDS011;11985;49.404;7.734;2023-01-30T02:13:00;47.60;;;19.23;;
23614;SDS011;11985;49.404;7.734;2023-01-30T02:18:02;47.30;;;18.00;;
23614;SDS011;11985;49.404;7.734;2023-01-30T02:23:25;58.40;;;21.15;;
23614;SDS011;11985;49.404;7.734;2023-01-30T02:29:05;62.88;;;21.02;;
23614;SDS011;11985;49.404;7.734;2023-01-30T02:34:25;54.92;;;20.33;;
23614;SDS011;11985;49.404;7.734;2023-01-30T02:39:37;56.30;;;21.65;;
23614;SDS011;11985;49.404;7.734;2023-01-30T02:44:49;56.17;;;21.00;;
23614;SDS011;11985;49.404;7.734;2023-01-30T02:50:01;53.95;;;18.23;;
23614;SDS011;11985;49.404;7.734;2023-01-30T02:55:08;63.97;;;23.08;;
23614;SDS011;11985;49.404;7.734;2023-01-30T03:00:18;65.63;;;23.50;;
23614;SDS011;11985;49.404;7.734;2023-01-30T03:05:29;60.08;;;22.63;;
23614;SDS011;11985;49.404;7.734;2023-01-30T03:10:46;62.97;;;23.80;;
23614;SDS011;11985;49.404;7.734;2023-01-30T03:15:53;69.72;;;23.50;;
23614;SDS011;11985;49.404;7.734;2023-01-30T03:21:04;61.10;;;23.85;;
23614;SDS011;11985;49.404;7.734;2023-01-30T03:26:07;53.80;;;17.50;;
23614;SDS011;11985;49.404;7.734;2023-01-30T03:31:14;59.22;;;21.10;;
23614;SDS011;11985;49.404;7.734;2023-01-30T03:36:16;72.05;;;25.15;;
23614;SDS011;11985;49.404;7.734;2023-01-30T03:41:18;66.85;;;23.65;;
23614;SDS011;11985;49.404;7.734;2023-01-30T03:46:20;65.93;;;20.92;;
23614;SDS011;11985;49.404;7.734;2023-01-30T03:51:22;63.22;;;20.25;;
23614;SDS011;11985;49.404;7.734;2023-01-30T03:56:24;57.53;;;21.13;;
23614;SDS011;11985;49.404;7.734;2023-01-30T04:01:25;60.90;;;22.13;;
23614;SDS011;11985;49.404;7.734;2023-01-30T04:06:28;67.25;;;23.58;;
23614;SDS011;11985;49.404;7.734;2023-01-30T04:11:30;64.50;;;21.63;;
23614;SDS011;11985;49.404;7.734;2023-01-30T04:16:31;67.18;;;21.20;;
23614;SDS011;11985;49.404;7.734;2023-01-30T04:21:34;56.13;;;20.17;;
23614;SDS011;11985;49.404;7.734;2023-01-30T04:26:36;52.90;;;19.70;;
23614;SDS011;11985;49.404;7.734;2023-01-30T04:31:37;59.85;;;19.20;;
23614;SDS011;11985;49.404;7.734;2023-01-30T04:36:40;53.10;;;19.02;;
23614;SDS011;11985;49.404;7.734;2023-01-30T04:41:42;54.67;;;20.35;;
23614;SDS011;11985;49.404;7.734;2023-01-30T04:46:43;60.25;;;19.23;;
23614;SDS011;11985;49.404;7.734;2023-01-30T04:51:46;58.92;;;21.13;;
23614;SDS011;11985;49.404;7.734;2023-01-30T04:56:47;44.97;;;16.83;;
23614;SDS011;11985;49.404;7.734;2023-01-30T05:01:49;52.10;;;18.75;;
23614;SDS011;11985;49.404;7.734;2023-01-30T05:06:52;43.40;;;17.98;;
23614;SDS011;11985;49.404;7.734;2023-01-30T05:11:53;49.13;;;19.13;;
23614;SDS011;11985;49.404;7.734;2023-01-30T05:16:55;46.05;;;18.90;;
23614;SDS011;11985;49.404;7.734;2023-01-30T05:21:58;46.13;;;17.92;;
23614;SDS011;11985;49.404;7.734;2023-01-30T05:26:59;43.42;;;16.98;;
23614;SDS011;11985;49.404;7.734;2023-01-30T05:32:02;41.17;;;16.45;;
23614;SDS011;11985;49.404;7.734;2023-01-30T05:37:05;47.42;;;16.92;;
23614;SDS011;11985;49.404;7.734;2023-01-30T05:42:06;40.17;;;16.35;;
23614;SDS011;11985;49.404;7.734;2023-01-30T05:47:08;32.72;;;14.85;;
23614;SDS011;11985;49.404;7.734;2023-01-30T05:52:11;41.55;;;15.32;;
23614;SDS011;11985;49.404;7.734;2023-01-30T05:57:12;45.05;;;16.95;;
23614;SDS011;11985;49.404;7.734;2023-01-30T06:02:14;37.70;;;15.23;;
23614;SDS011;11985;49.404;7.734;2023-01-30T06:07:17;48.30;;;18.58;;
23614;SDS011;11985;49.404;7.734;2023-01-30T06:12:18;31.50;;;12.35;;
23614;SDS011;11985;49.404;7.734;2023-01-30T06:17:20;42.38;;;16.83;;
23614;SDS011;11985;49.404;7.734;2023-01-30T06:22:23;44.47;;;17.77;;
23614;SDS011;11985;49.404;7.734;2023-01-30T06:27:24;43.53;;;17.75;;
23614;SDS011;11985;49.404;7.734;2023-01-30T06:32:26;27.55;;;11.25;;
23614;SDS011;11985;49.404;7.734;2023-01-30T06:37:29;44.25;;;17.30;;
23614;SDS011;11985;49.404;7.734;2023-01-30T06:42:30;48.78;;;18.77;;
23614;SDS011;11985;49.404;7.734;2023-01-30T06:47:32;47.08;;;18.38;;
23614;SDS011;11985;49.404;7.734;2023-01-30T06:52:35;53.67;;;19.85;;
23614;SDS011;11985;49.404;7.734;2023-01-30T06:57:41;49.95;;;20.38;;
23614;SDS011;11985;49.404;7.734;2023-01-30T07:02:43;47.05;;;16.85;;
23614;SDS011;11985;49.404;7.734;2023-01-30T07:07:46;51.42;;;19.33;;
23614;SDS011;11985;49.404;7.734;2023-01-30T07:12:47;51.75;;;19.75;;
23614;SDS011;11985;49.404;7.734;2023-01-30T07:17:49;47.25;;;18.98;;
23614;SDS011;11985;49.404;7.734;2023-01-30T07:22:53;38.45;;;16.30;;
23614;SDS011;11985;49.404;7.734;2023-01-30T07:27:56;46.35;;;18.45;;
23614;SDS011;11985;49.404;7.734;2023-01-30T07:32:59;44.95;;;17.92;;
23614;SDS011;11985;49.404;7.734;2023-01-30T07:38:04;35.00;;;15.07;;
23614;SDS011;11985;49.404;7.734;2023-01-30T07:43:14;42.45;;;17.08;;
23614;SDS011;11985;49.404;7.734;2023-01-30T07:48:17;41.42;;;15.77;;
23614;SDS011;11985;49.404;7.734;2023-01-30T07:53:20;40.80;;;16.90;;
23614;SDS011;11985;49.404;7.734;2023-01-30T07:58:22;40.53;;;16.23;;
23614;SDS011;11985;49.404;7.734;2023-01-30T08:03:24;31.52;;;11.88;;
23614;SDS011;11985;49.404;7.734;2023-01-30T08:08:27;48.22;;;17.15;;
23614;SDS011;11985;49.404;7.734;2023-01-30T08:13:29;40.67;;;16.90;;
23614;SDS011;11985;49.404;7.734;2023-01-30T08:18:31;41.50;;;17.08;;
23614;SDS011;11985;49.404;7.734;2023-01-30T08:23:34;43.20;;;16.70;;
23614;SDS011;11985;49.404;7.734;2023-01-30T08:28:36;37.78;;;15.18;;
23614;SDS011;11985;49.404;7.734;2023-01-30T08:33:37;37.47;;;14.82;;
23614;SDS011;11985;49.404;7.734;2023-01-30T08:38:40;30.77;;;14.30;;
23614;SDS011;11985;49.404;7.734;2023-01-30T08:43:42;27.80;;;12.02;;
23614;SDS011;11985;49.404;7.734;2023-01-30T08:48:43;27.13;;;11.60;;
23614;SDS011;11985;49.404;7.734;2023-01-30T08:53:46;26.38;;;11.18;;
23614;SDS011;11985;49.404;7.734;2023-01-30T08:58:48;26.60;;;12.70;;
23614;SDS011;11985;49.404;7.734;2023-01-30T09:03:49;27.85;;;11.82;;
23614;SDS011;11985;49.404;7.734;2023-01-30T09:08:52;21.95;;;10.43;;
23614;SDS011;11985;49.404;7.734;2023-01-30T09:13:54;22.70;;;11.02;;
23614;SDS011;11985;49.404;7.734;2023-01-30T09:18:55;23.58;;;9.93;;
23614;SDS011;11985;49.404;7.734;2023-01-30T09:23:59;21.75;;;9.90;;
23614;SDS011;11985;49.404;7.734;2023-01-30T09:29:00;18.33;;;8.45;;
23614;SDS011;11985;49.404;7.734;2023-01-30T09:34:02;15.05;;;6.60;;
23614;SDS011;11985;49.404;7.734;2023-01-30T09:39:05;18.48;;;9.20;;
23614;SDS011;11985;49.404;7.734;2023-01-30T09:44:13;22.77;;;9.15;;
23614;SDS011;11985;49.404;7.734;2023-01-30T09:49:34;19.38;;;8.73;;
23614;SDS011;11985;49.404;7.734;2023-01-30T09:54:46;19.90;;;8.60;;
23614;SDS011;11985;49.404;7.734;2023-01-30T09:59:51;20.38;;;8.60;;
23614;SDS011;11985;49.404;7.734;2023-01-30T10:04:57;18.70;;;9.05;;
23614;SDS011;11985;49.404;7.734;2023-01-30T10:10:04;16.30;;;7.40;;
23614;SDS011;11985;49.404;7.734;2023-01-30T10:15:13;20.83;;;9.35;;
23614;SDS011;11985;49.404;7.734;2023-01-30T10:20:28;19.40;;;9.35;;
23614;SDS011;11985;49.404;7.734;2023-01-30T10:25:39;13.15;;;6.38;;
23614;SDS011;11985;49.404;7.734;2023-01-30T10:30:44;17.90;;;7.65;;
23614;SDS011;11985;49.404;7.734;2023-01-30T10:35:49;21.13;;;9.95;;
23614;SDS011;11985;49.404;7.734;2023-01-30T10:41:03;25.90;;;12.43;;
23614;SDS011;11985;49.404;7.734;2023-01-30T10:46:15;21.05;;;10.23;;
23614;SDS011;11985;49.404;7.734;2023-01-30T10:51:26;16.50;;;8.63;;
23614;SDS011;11985;49.404;7.734;2023-01-30T10:56:41;20.35;;;8.18;;
23614;SDS011;11985;49.404;7.734;2023-01-30T11:01:54;22.63;;;9.82;;
23614;SDS011;11985;49.404;7.734;2023-01-30T11:07:00;22.50;;;10.18;;
23614;SDS011;11985;49.404;7.734;2023-01-30T11:12:04;23.35;;;9.57;;
23614;SDS011;11985;49.404;7.734;2023-01-30T11:17:05;21.80;;;8.75;;
23614;SDS011;11985;49.404;7.734;2023-01-30T11:22:15;18.10;;;8.35;;
23614;SDS011;11985;49.404;7.734;2023-01-30T11:27:20;19.90;;;9.80;;
23614;SDS011;11985;49.404;7.734;2023-01-30T11:32:26;16.33;;;6.88;;
23614;SDS011;11985;49.404;7.734;2023-01-30T11:37:30;19.10;;;9.48;;
23614;SDS011;11985;49.404;7.734;2023-01-30T11:42:34;11.07;;;5.97;;
23614;SDS011;11985;49.404;7.734;2023-01-30T11:47:36;17.65;;;9.10;;
23614;SDS011;11985;49.404;7.734;2023-01-30T11:52:40;15.77;;;7.07;;
23614;SDS011;11985;49.404;7.734;2023-01-30T11:57:44;14.93;;;7.55;;
23614;SDS011;11985;49.404;7.734;2023-01-30T12:02:49;29.33;;;14.27;;
23614;SDS011;11985;49.404;7.734;2023-01-30T12:07:53;17.90;;;8.82;;
23614;SDS011;11985;49.404;7.734;2023-01-30T12:13:15;38.20;;;15.65;;
23614;SDS011;11985;49.404;7.734;2023-01-30T12:18:22;23.77;;;12.38;;
23614;SDS011;11985;49.404;7.734;2023-01-30T12:23:32;22.70;;;11.25;;
23614;SDS011;11985;49.404;7.734;2023-01-30T12:28:42;25.88;;;11.45;;
23614;SDS011;11985;49.404;7.734;2023-01-30T12:33:49;21.38;;;11.27;;
23614;SDS011;11985;49.404;7.734;2023-01-30T12:38:55;37.78;;;16.60;;
23614;SDS011;11985;49.404;7.734;2023-01-30T12:44:15;21.02;;;8.98;;
23614;SDS011;11985;49.404;7.734;2023-01-30T12:54:55;32.42;;;12.85;;
23614;SDS011;11985;49.404;7.734;2023-01-30T13:00:08;24.83;;;12.55;;
23614;SDS011;11985;49.404;7.734;2023-01-30T13:05:27;22.92;;;11.32;;
23614;SDS011;11985;49.404;7.734;2023-01-30T13:10:39;32.53;;;14.73;;
23614;SDS011;11985;49.404;7.734;2023-01-30T13:15:51;23.15;;;12.05;;
23614;SDS011;11985;49.404;7.734;2023-01-30T13:21:00;27.27;;;13.57;;
23614;SDS011;11985;49.404;7.734;2023-01-30T13:26:07;24.58;;;12.52;;
23614;SDS011;11985;49.404;7.734;2023-01-30T13:31:13;18.45;;;9.20;;
23614;SDS011;11985;49.404;7.734;2023-01-30T13:36:18;20.75;;;10.65;;
23614;SDS011;11985;49.404;7.734;2023-01-30T13:41:24;26.52;;;12.45;;
23614;SDS011;11985;49.404;7.734;2023-01-30T13:46:35;24.65;;;11.70;;
23614;SDS011;11985;49.404;7.734;2023-01-30T13:51:44;19.15;;;10.60;;
23614;SDS011;11985;49.404;7.734;2023-01-30T13:56:49;21.73;;;11.50;;
23614;SDS011;11985;49.404;7.734;2023-01-30T14:02:14;22.05;;;11.55;;
23614;SDS011;11985;49.404;7.734;2023-01-30T14:12:24;25.88;;;11.63;;
23614;SDS011;11985;49.404;7.734;2023-01-30T14:17:34;23.27;;;11.27;;
23614;SDS011;11985;49.404;7.734;2023-01-30T14:22:39;22.13;;;11.03;;
23614;SDS011;11985;49.404;7.734;2023-01-30T14:27:51;22.00;;;11.23;;
23614;SDS011;11985;49.404;7.734;2023-01-30T14:32:55;21.20;;;11.13;;
23614;SDS011;11985;49.404;7.734;2023-01-30T14:48:51;19.20;;;10.98;;
23614;SDS011;11985;49.404;7.734;2023-01-30T14:53:57;18.13;;;10.40;;
23614;SDS011;11985;49.404;7.734;2023-01-30T14:59:03;19.38;;;10.07;;
23614;SDS011;11985;49.404;7.734;2023-01-30T15:04:11;17.83;;;8.93;;
23614;SDS011;11985;49.404;7.734;2023-01-30T15:09:16;23.17;;;11.23;;
23614;SDS011;11985;49.404;7.734;2023-01-30T15:14:19;23.33;;;11.50;;
23614;SDS011;11985;49.404;7.734;2023-01-30T15:19:42;32.90;;;12.40;;
23614;SDS011;11985;49.404;7.734;2023-01-30T15:30:38;24.65;;;12.32;;
23614;SDS011;11985;49.404;7.734;2023-01-30T15:35:57;27.08;;;14.25;;
23614;SDS011;11985;49.404;7.734;2023-01-30T15:40:59;21.23;;;12.30;;
23614;SDS011;11985;49.404;7.734;2023-01-30T15:46:05;22.10;;;13.43;;
23614;SDS011;11985;49.404;7.734;2023-01-30T15:51:17;25.50;;;12.75;;
23614;SDS011;11985;49.404;7.734;2023-01-30T15:56:26;27.48;;;13.68;;
23614;SDS011;11985;49.404;7.734;2023-01-30T16:01:30;22.90;;;12.03;;
23614;SDS011;11985;49.404;7.734;2023-01-30T16:06:33;23.70;;;10.30;;
23614;SDS011;11985;49.404;7.734;2023-01-30T16:11:37;12.23;;;7.25;;
23614;SDS011;11985;49.404;7.734;2023-01-30T16:16:40;17.80;;;10.80;;
23614;SDS011;11985;49.404;7.734;2023-01-30T16:21:47;19.85;;;10.90;;
23614;SDS011;11985;49.404;7.734;2023-01-30T16:26:50;17.30;;;10.23;;
23614;SDS011;11985;49.404;7.734;2023-01-30T16:31:55;20.27;;;10.82;;
23614;SDS011;11985;49.404;7.734;2023-01-30T16:37:00;21.25;;;11.57;;
23614;SDS011;11985;49.404;7.734;2023-01-30T16:42:17;19.75;;;11.32;;
23614;SDS011;11985;49.404;7.734;2023-01-30T16:47:23;23.20;;;12.38;;
23614;SDS011;11985;49.404;7.734;2023-01-30T16:52:29;23.47;;;13.23;;
23614;SDS011;11985;49.404;7.734;2023-01-30T16:57:36;27.40;;;15.00;;
23614;SDS011;11985;49.404;7.734;2023-01-30T17:02:42;29.63;;;15.98;;
23614;SDS011;11985;49.404;7.734;2023-01-30T17:07:51;28.98;;;15.93;;
23614;SDS011;11985;49.404;7.734;2023-01-30T17:17:56;31.88;;;13.98;;
23614;SDS011;11985;49.404;7.734;2023-01-30T17:23:02;34.25;;;15.00;;
23614;SDS011;11985;49.404;7.734;2023-01-30T17:28:08;30.70;;;15.20;;
23614;SDS011;11985;49.404;7.734;2023-01-30T17:33:15;29.13;;;15.15;;
23614;SDS011;11985;49.404;7.734;2023-01-30T17:38:18;34.03;;;16.60;;
23614;SDS011;11985;49.404;7.734;2023-01-30T17:43:19;33.55;;;17.00;;
23614;SDS011;11985;49.404;7.734;2023-01-30T17:48:21;31.02;;;16.45;;
23614;SDS011;11985;49.404;7.734;2023-01-30T17:53:23;35.33;;;17.63;;
23614;SDS011;11985;49.404;7.734;2023-01-30T17:58:25;36.28;;;16.73;;
23614;SDS011;11985;49.404;7.734;2023-01-30T18:03:27;37.78;;;19.30;;
23614;SDS011;11985;49.404;7.734;2023-01-30T18:08:29;45.08;;;20.00;;
23614;SDS011;11985;49.404;7.734;2023-01-30T18:13:31;40.22;;;18.58;;
23614;SDS011;11985;49.404;7.734;2023-01-30T18:18:33;38.05;;;19.50;;
23614;SDS011;11985;49.404;7.734;2023-01-30T18:23:36;49.30;;;22.90;;
23614;SDS011;11985;49.404;7.734;2023-01-30T18:28:39;56.60;;;24.52;;
23614;SDS011;11985;49.404;7.734;2023-01-30T18:33:42;45.50;;;22.40;;
23614;SDS011;11985;49.404;7.734;2023-01-30T18:38:46;47.65;;;22.77;;
23614;SDS011;11985;49.404;7.734;2023-01-30T18:43:52;46.67;;;21.63;;
23614;SDS011;11985;49.404;7.734;2023-01-30T18:48:54;60.95;;;28.40;;
23614;SDS011;11985;49.404;7.734;2023-01-30T18:53:58;56.70;;;26.20;;
23614;SDS011;11985;49.404;7.734;2023-01-30T18:59:00;57.80;;;27.88;;
23614;SDS011;11985;49.404;7.734;2023-01-30T19:04:03;54.90;;;24.45;;
23614;SDS011;11985;49.404;7.734;2023-01-30T19:09:10;48.88;;;23.58;;
23614;SDS011;11985;49.404;7.734;2023-01-30T19:14:14;63.22;;;26.67;;
23614;SDS011;11985;49.404;7.734;2023-01-30T19:19:16;51.45;;;22.83;;
23614;SDS011;11985;49.404;7.734;2023-01-30T19:24:19;62.13;;;23.77;;
23614;SDS011;11985;49.404;7.734;2023-01-30T19:29:20;57.22;;;24.27;;
23614;SDS011;11985;49.404;7.734;2023-01-30T19:34:22;56.40;;;24.38;;
23614;SDS011;11985;49.404;7.734;2023-01-30T19:39:25;61.30;;;24.55;;
23614;SDS011;11985;49.404;7.734;2023-01-30T19:44:26;60.95;;;26.83;;
23614;SDS011;11985;49.404;7.734;2023-01-30T19:49:28;53.80;;;24.20;;
23614;SDS011;11985;49.404;7.734;2023-01-30T19:54:31;51.50;;;22.40;;
23614;SDS011;11985;49.404;7.734;2023-01-30T19:59:33;60.28;;;27.88;;
23614;SDS011;11985;49.404;7.734;2023-01-30T20:04:37;74.55;;;31.48;;
23614;SDS011;11985;49.404;7.734;2023-01-30T20:09:41;56.80;;;26.17;;
23614;SDS011;11985;49.404;7.734;2023-01-30T20:14:42;59.85;;;25.95;;
23614;SDS011;11985;49.404;7.734;2023-01-30T20:19:44;57.55;;;26.17;;
23614;SDS011;11985;49.404;7.734;2023-01-30T20:24:46;58.15;;;27.15;;
23614;SDS011;11985;49.404;7.734;2023-01-30T20:29:48;57.75;;;25.55;;
23614;SDS011;11985;49.404;7.734;2023-01-30T20:34:50;67.47;;;31.80;;
23614;SDS011;11985;49.404;7.734;2023-01-30T20:39:52;77.03;;;37.42;;
23614;SDS011;11985;49.404;7.734;2023-01-30T20:44:54;64.45;;;27.67;;
23614;SDS011;11985;49.404;7.734;2023-01-30T20:49:55;77.10;;;34.40;;
23614;SDS011;11985;49.404;7.734;2023-01-30T20:54:58;65.03;;;28.05;;
23614;SDS011;11985;49.404;7.734;2023-01-30T21:00:00;68.60;;;28.35;;
23614;SDS011;11985;49.404;7.734;2023-01-30T21:05:03;62.90;;;26.50;;
23614;SDS011;11985;49.404;7.734;2023-01-30T21:10:07;62.65;;;25.15;;
23614;SDS011;11985;49.404;7.734;2023-01-30T21:15:09;49.03;;;22.63;;
23614;SDS011;11985;49.404;7.734;2023-01-30T21:20:11;69.30;;;27.10;;
23614;SDS011;11985;49.404;7.734;2023-01-30T21:25:14;53.38;;;22.02;;
23614;SDS011;11985;49.404;7.734;2023-01-30T21:30:15;59.70;;;24.48;;
23614;SDS011;11985;49.404;7.734;2023-01-30T21:35:17;44.38;;;19.85;;
23614;SDS011;11985;49.404;7.734;2023-01-30T21:40:20;56.08;;;22.08;;
23614;SDS011;11985;49.404;7.734;2023-01-30T21:45:35;55.33;;;22.90;;
23614;SDS011;11985;49.404;7.734;2023-01-30T21:50:37;61.17;;;22.75;;
23614;SDS011;11985;49.404;7.734;2023-01-30T21:55:40;50.90;;;20.73;;
23614;SDS011;11985;49.404;7.734;2023-01-30T22:00:41;51.70;;;22.25;;
23614;SDS011;11985;49.404;7.734;2023-01-30T22:05:43;49.00;;;21.13;;
23614;SDS011;11985;49.404;7.734;2023-01-30T22:10:46;52.05;;;22.05;;
23614;SDS011;11985;49.404;7.734;2023-01-30T22:15:49;61.22;;;23.25;;
23614;SDS011;11985;49.404;7.734;2023-01-30T22:20:50;55.92;;;23.48;;
23614;SDS011;11985;49.404;7.734;2023-01-30T22:25:53;55.97;;;22.48;;
23614;SDS011;11985;49.404;7.734;2023-01-30T22:30:59;67.40;;;24.52;;
23614;SDS011;11985;49.404;7.734;2023-01-30T22:36:02;59.60;;;22.52;;
23614;SDS011;11985;49.404;7.734;2023-01-30T22:41:07;59.45;;;22.08;;
23614;SDS011;11985;49.404;7.734;2023-01-30T22:46:14;57.13;;;21.33;;
23614;SDS011;11985;49.404;7.734;2023-01-30T22:51:17;49.53;;;20.52;;
23614;SDS011;11985;49.404;7.734;2023-01-30T22:56:22;50.10;;;20.08;;
23614;SDS011;11985;49.404;7.734;2023-01-30T23:01:26;49.65;;;20.15;;
23614;SDS011;11985;49.404;7.734;2023-01-30T23:06:29;53.13;;;20.65;;
23614;SDS011;11985;49.404;7.734;2023-01-30T23:11:34;63.53;;;20.95;;
23614;SDS011;11985;49.404;7.734;2023-01-30T23:16:37;53.38;;;20.33;;
23614;SDS011;11985;49.404;7.734;2023-01-30T23:21:41;50.33;;;20.48;;
23614;SDS011;11985;49.404;7.734;2023-01-30T23:26:47;62.70;;;21.23;;
23614;SDS011;11985;49.404;7.734;2023-01-30T23:31:50;51.67;;;19.55;;
23614;SDS011;11985;49.404;7.734;2023-01-30T23:36:51;54.95;;;20.02;;
23614;SDS011;11985;49.404;7.734;2023-01-30T23:41:54;55.08;;;21.95;;
23614;SDS011;11985;49.404;7.734;2023-01-30T23:46:55;58.47;;;21.50;;
23614;SDS011;11985;49.404;7.734;2023-01-30T23:51:57;59.97;;;22.83;;
23614;SDS011;11985;49.404;7.734;2023-01-30T23:57:00;65.82;;;21.42;;
